Time;durP1;ratioP1;P1;durP2;ratioP2;P2;SDS_P1;SDS_P2;PMS_P1;PMS_P2;Temp;Humidity;BMP_temperature;BMP_pressure;BME280_temperature;BME280_humidity;BME280_pressure;Samples;Min_cycle;Max_cycle;Signal;HPM_P1;HPM_P2
2021/11/18 00:00:28;;;;;;;50.25;19.27;;;6.40;94.80;;;;;;5074406;28;20487;-50
2021/11/18 00:02:54;;;;;;;59.92;18.73;;;6.40;94.70;;;;;;5074296;28;20054;-48
2021/11/18 00:05:24;;;;;;;43.83;18.15;;;6.30;94.60;;;;;;5074386;28;20029;-49
2021/11/18 00:07:52;;;;;;;73.57;19.40;;;6.20;94.70;;;;;;5073748;28;20071;-53
2021/11/18 00:10:24;;;;;;;43.40;18.48;;;6.20;94.80;;;;;;5072634;28;20039;-48
2021/11/18 00:12:51;;;;;;;51.63;17.95;;;6.20;94.90;;;;;;5074156;28;20499;-49
2021/11/18 00:15:18;;;;;;;52.83;18.88;;;6.30;95.00;;;;;;5074343;28;20126;-50
2021/11/18 00:17:44;;;;;;;46.65;17.73;;;6.20;94.90;;;;;;5073865;28;20032;-49
2021/11/18 00:20:15;;;;;;;43.45;21.17;;;6.10;95.00;;;;;;5073769;28;20029;-49
2021/11/18 00:22:43;;;;;;;47.92;18.52;;;6.10;95.00;;;;;;5073784;28;20024;-50
2021/11/18 00:25:09;;;;;;;45.97;18.58;;;6.20;95.20;;;;;;5073856;28;20035;-50
2021/11/18 00:27:35;;;;;;;36.25;16.75;;;6.20;95.10;;;;;;5073441;28;20094;-48
2021/11/18 00:30:01;;;;;;;53.08;18.30;;;6.10;95.10;;;;;;5073471;28;20024;-49
2021/11/18 00:32:27;;;;;;;50.83;18.88;;;6.20;95.10;;;;;;5073480;28;20028;-48
2021/11/18 00:34:52;;;;;;;43.08;17.15;;;6.10;95.10;;;;;;5073564;28;20033;-49
2021/11/18 00:37:18;;;;;;;45.17;16.17;;;6.10;95.10;;;;;;5073590;28;20033;-49
2021/11/18 00:39:43;;;;;;;36.90;14.82;;;6.10;95.20;;;;;;5073655;28;20024;-49
2021/11/18 00:42:09;;;;;;;47.28;17.40;;;6.00;95.20;;;;;;5073338;28;20025;-49
2021/11/18 00:44:35;;;;;;;43.85;18.20;;;6.00;95.30;;;;;;5073456;28;20033;-50
2021/11/18 00:47:00;;;;;;;42.25;16.58;;;6.00;95.30;;;;;;5074316;28;20027;-48
2021/11/18 00:49:26;;;;;;;48.97;17.40;;;6.10;95.40;;;;;;5074294;28;20021;-49
2021/11/18 00:51:52;;;;;;;40.03;17.67;;;6.10;95.30;;;;;;5073776;28;20024;-47
2021/11/18 00:54:18;;;;;;;44.65;16.90;;;6.00;95.30;;;;;;5073064;28;20024;-46
2021/11/18 00:56:44;;;;;;;55.33;16.98;;;6.00;95.30;;;;;;5073184;28;20472;-46
2021/11/18 00:59:10;;;;;;;56.80;20.00;;;6.00;95.20;;;;;;5073367;28;20090;-49
2021/11/18 01:01:41;;;;;;;43.22;18.10;;;6.00;95.20;;;;;;5073361;28;20476;-47
2021/11/18 01:04:09;;;;;;;45.58;18.05;;;6.10;95.10;;;;;;5073117;28;20028;-48
2021/11/18 01:06:35;;;;;;;51.10;18.33;;;5.90;95.00;;;;;;5072976;28;20545;-48
2021/11/18 01:09:00;;;;;;;44.45;16.98;;;6.00;95.10;;;;;;5074244;28;20024;-47
2021/11/18 01:11:30;;;;;;;56.58;17.50;;;6.10;95.00;;;;;;5074047;28;20024;-52
2021/11/18 01:13:56;;;;;;;54.03;17.83;;;6.10;95.00;;;;;;5073565;28;20103;-49
2021/11/18 01:16:25;;;;;;;49.38;19.13;;;6.10;94.90;;;;;;5073439;28;20504;-48
2021/11/18 01:18:51;;;;;;;45.45;17.48;;;6.10;94.80;;;;;;5073020;28;20024;-48
2021/11/18 01:21:21;;;;;;;56.45;19.25;;;6.20;94.70;;;;;;5073082;28;20106;-48
2021/11/18 01:23:48;;;;;;;44.85;19.20;;;6.10;94.60;;;;;;5073019;28;20385;-47
2021/11/18 01:26:16;;;;;;;58.33;20.42;;;6.00;94.50;;;;;;5071496;28;20033;-49
2021/11/18 01:28:44;;;;;;;44.65;17.20;;;6.10;94.60;;;;;;5075137;28;20106;-49
2021/11/18 01:31:10;;;;;;;58.38;19.48;;;6.10;94.60;;;;;;5079645;28;20025;-48
2021/11/18 01:33:37;;;;;;;42.50;17.52;;;6.00;94.50;;;;;;5079586;28;20028;-48
2021/11/18 01:36:03;;;;;;;48.92;18.20;;;5.90;94.60;;;;;;5079355;28;20407;-49
2021/11/18 01:38:31;;;;;;;41.83;17.17;;;5.90;94.60;;;;;;5079274;28;20029;-47
2021/11/18 01:41:02;;;;;;;46.55;16.90;;;6.00;94.70;;;;;;5079564;28;20039;-51
2021/11/18 01:43:31;;;;;;;37.70;15.88;;;5.90;94.70;;;;;;5079717;28;20124;-50
2021/11/18 01:45:58;;;;;;;35.90;17.33;;;5.80;94.80;;;;;;5079244;28;20028;-50
2021/11/18 01:48:24;;;;;;;35.25;16.50;;;5.80;94.80;;;;;;5079259;28;20040;-48
2021/11/18 01:50:52;;;;;;;46.28;17.70;;;5.70;95.00;;;;;;5079730;28;20060;-52
2021/11/18 01:53:23;;;;;;;40.17;16.55;;;5.80;95.00;;;;;;5079249;28;20084;-50
2021/11/18 01:55:50;;;;;;;37.80;17.55;;;5.80;95.20;;;;;;5079601;28;20036;-49
2021/11/18 01:58:17;;;;;;;41.95;16.15;;;5.80;95.20;;;;;;5079124;28;20032;-48
2021/11/18 02:00:47;;;;;;;45.13;17.42;;;5.80;95.10;;;;;;5078699;28;20056;-47
2021/11/18 02:03:13;;;;;;;;;;;5.80;95.20;;;;;;5079558;28;20033;-48
2021/11/18 02:05:50;;;;;;;45.22;18.00;;;5.70;95.20;;;;;;5079045;28;19957;-51
2021/11/18 02:08:16;;;;;;;54.72;22.55;;;5.70;95.30;;;;;;5078696;28;20041;-47
2021/11/18 02:10:46;;;;;;;51.05;20.70;;;5.70;95.30;;;;;;5078872;28;20487;-50
2021/11/18 02:13:15;;;;;;;45.47;21.05;;;5.70;95.20;;;;;;5078801;28;20031;-49
2021/11/18 02:15:48;;;;;;;55.90;19.60;;;5.80;95.30;;;;;;5079128;28;20059;-49
2021/11/18 02:18:20;;;;;;;47.95;20.27;;;5.70;95.20;;;;;;5078788;28;20384;-48
2021/11/18 02:20:48;;;;;;;51.38;19.08;;;5.70;95.30;;;;;;5078794;28;20071;-48
2021/11/18 02:23:18;;;;;;;51.40;19.02;;;5.70;95.30;;;;;;5078628;28;20391;-48
2021/11/18 02:25:47;;;;;;;51.53;24.42;;;5.70;95.20;;;;;;5078958;28;20070;-50
2021/11/18 02:28:12;;;;;;;62.22;24.00;;;5.70;95.20;;;;;;5078998;28;20017;-47
2021/11/18 02:30:40;;;;;;;50.67;22.00;;;5.80;95.20;;;;;;5078657;28;20134;-49
2021/11/18 02:33:07;;;;;;;47.75;22.35;;;5.80;95.20;;;;;;5078902;28;20040;-47
2021/11/18 02:35:38;;;;;;;55.70;22.67;;;5.70;95.00;;;;;;5079315;28;20468;-48
2021/11/18 02:38:04;;;;;;;74.72;25.80;;;5.60;95.10;;;;;;5078819;28;20029;-50
2021/11/18 02:40:30;;;;;;;50.13;21.25;;;5.80;95.20;;;;;;5076393;28;20473;-49
2021/11/18 02:42:58;;;;;;;56.42;24.13;;;5.70;95.20;;;;;;5075638;28;20036;-52
2021/11/18 02:45:28;;;;;;;49.63;21.92;;;5.70;95.30;;;;;;5075854;28;20107;-47
2021/11/18 02:47:55;;;;;;;58.80;22.58;;;5.70;95.20;;;;;;5075996;28;20020;-47
2021/11/18 02:50:27;;;;;;;49.05;22.00;;;5.70;95.20;;;;;;5075800;28;20036;-49
2021/11/18 02:52:53;;;;;;;59.40;23.40;;;5.70;95.30;;;;;;5075595;28;20024;-48
2021/11/18 02:55:40;;;;;;;50.45;21.88;;;5.70;95.40;;;;;;5075211;28;20074;-47
2021/11/18 02:58:06;;;;;;;61.38;25.42;;;5.60;95.40;;;;;;5075286;28;20086;-48
2021/11/18 03:00:44;;;;;;;48.55;23.42;;;5.60;95.40;;;;;;5075337;28;20032;-47
2021/11/18 03:03:10;;;;;;;60.45;25.15;;;5.60;95.50;;;;;;5075468;28;20028;-48
2021/11/18 03:05:35;;;;;;;60.55;23.40;;;5.60;95.50;;;;;;5075228;28;20029;-52
2021/11/18 03:08:01;;;;;;;54.97;22.20;;;5.60;95.60;;;;;;5075001;28;20037;-47
2021/11/18 03:10:28;;;;;;;64.68;27.70;;;5.60;95.60;;;;;;5075471;28;20115;-48
2021/11/18 03:12:54;;;;;;;79.55;28.80;;;5.70;95.60;;;;;;5075359;28;20033;-47
2021/11/18 03:15:21;;;;;;;69.80;25.73;;;5.70;95.50;;;;;;5075453;28;20411;-49
2021/11/18 03:17:47;;;;;;;66.25;28.33;;;5.70;95.40;;;;;;5075456;28;20024;-48
2021/11/18 03:20:16;;;;;;;57.95;25.05;;;5.70;95.40;;;;;;5075602;28;20017;-50
2021/11/18 03:22:44;;;;;;;57.20;23.42;;;5.70;95.40;;;;;;5074166;28;20056;-51
2021/11/18 03:25:11;;;;;;;64.38;26.13;;;5.60;95.40;;;;;;5075244;28;20019;-48
2021/11/18 03:27:37;;;;;;;60.33;24.70;;;5.60;95.30;;;;;;5075097;28;20069;-49
2021/11/18 03:30:08;;;;;;;57.35;24.38;;;5.60;95.40;;;;;;5074772;28;20017;-49
2021/11/18 03:32:34;;;;;;;66.47;25.75;;;5.60;95.40;;;;;;5075190;28;20047;-48
2021/11/18 03:35:00;;;;;;;60.58;26.00;;;5.60;95.40;;;;;;5074603;28;20032;-48
2021/11/18 03:37:26;;;;;;;68.85;27.13;;;5.60;95.40;;;;;;5074798;28;20048;-47
2021/11/18 03:39:51;;;;;;;66.90;26.55;;;5.60;95.30;;;;;;5074497;28;20032;-47
2021/11/18 03:42:18;;;;;;;66.90;26.95;;;5.60;95.30;;;;;;5074769;28;20211;-51
2021/11/18 03:44:43;;;;;;;61.03;27.15;;;5.60;95.30;;;;;;5074403;28;20449;-48
2021/11/18 03:47:13;;;;;;;75.43;25.55;;;5.60;95.30;;;;;;5074567;28;20027;-49
2021/11/18 03:49:39;;;;;;;64.35;26.38;;;5.60;95.30;;;;;;5074285;28;20086;-48
2021/11/18 03:52:08;;;;;;;89.50;27.75;;;5.60;95.30;;;;;;5074063;28;20032;-48
2021/11/18 03:54:35;;;;;;;74.85;28.02;;;5.60;95.20;;;;;;5072879;28;20036;-48
2021/11/18 03:57:00;;;;;;;84.28;28.45;;;5.70;95.30;;;;;;5074193;28;20024;-48
2021/11/18 03:59:30;;;;;;;80.63;27.88;;;5.60;95.10;;;;;;5074091;28;20023;-52
2021/11/18 04:01:57;;;;;;;69.18;26.75;;;5.60;95.10;;;;;;5074382;28;20109;-50
2021/11/18 04:04:38;;;;;;;79.43;26.20;;;5.60;95.30;;;;;;5074024;28;20059;-49
2021/11/18 04:07:04;;;;;;;59.78;23.23;;;5.50;95.20;;;;;;5074155;28;20556;-50
2021/11/18 04:09:29;;;;;;;69.82;25.70;;;5.60;95.30;;;;;;5074172;28;20105;-51
2021/11/18 04:12:00;;;;;;;69.97;24.77;;;5.60;95.30;;;;;;5073805;28;20185;-49
2021/11/18 04:14:27;;;;;;;63.42;24.77;;;5.60;95.40;;;;;;5073900;28;20040;-48
2021/11/18 04:16:53;;;;;;;67.82;26.23;;;5.70;95.30;;;;;;5073770;28;20465;-50
2021/11/18 04:19:18;;;;;;;58.38;23.55;;;5.70;95.20;;;;;;5073709;28;20036;-49
2021/11/18 04:21:45;;;;;;;50.88;20.10;;;5.60;95.10;;;;;;5074065;28;20055;-50
2021/11/18 04:24:16;;;;;;;60.20;24.40;;;5.50;95.10;;;;;;5073762;28;20457;-48
2021/11/18 04:26:42;;;;;;;52.03;21.50;;;5.60;95.20;;;;;;5073673;28;20044;-49
2021/11/18 04:29:08;;;;;;;50.22;21.15;;;5.70;95.10;;;;;;5073572;28;20052;-49
2021/11/18 04:31:34;;;;;;;55.75;21.27;;;5.60;95.10;;;;;;5073684;28;20445;-48
2021/11/18 04:34:00;;;;;;;60.42;22.52;;;5.50;95.10;;;;;;5072167;28;20040;-48
2021/11/18 04:36:27;;;;;;;54.88;21.95;;;5.50;95.30;;;;;;5073455;28;20435;-48
2021/11/18 04:38:54;;;;;;;54.58;21.83;;;5.60;95.30;;;;;;5073603;28;20025;-51
2021/11/18 04:41:25;;;;;;;59.13;21.52;;;5.60;95.20;;;;;;5073457;28;20024;-48
2021/11/18 04:43:51;;;;;;;50.58;22.00;;;5.60;95.20;;;;;;5073266;28;20087;-49
2021/11/18 04:46:17;;;;;;;63.00;22.55;;;5.60;95.20;;;;;;5073404;28;20392;-48
2021/11/18 04:48:43;;;;;;;63.10;23.17;;;5.70;95.30;;;;;;5073194;28;20021;-49
2021/11/18 04:51:19;;;;;;;59.47;23.73;;;5.80;95.20;;;;;;5073237;28;20028;-52
2021/11/18 04:53:45;;;;;;;60.97;23.85;;;5.80;95.00;;;;;;5073536;28;20093;-48
2021/11/18 04:56:11;;;;;;;74.78;27.60;;;5.70;94.90;;;;;;5071962;28;20024;-51
2021/11/18 04:58:37;;;;;;;75.50;24.08;;;5.80;95.00;;;;;;5072979;28;20112;-48
2021/11/18 05:01:05;;;;;;;63.55;23.52;;;5.80;94.80;;;;;;5073385;28;20036;-49
2021/11/18 05:03:32;;;;;;;74.55;24.60;;;5.70;94.80;;;;;;5072566;28;20107;-47
2021/11/18 05:05:58;;;;;;;63.60;24.15;;;5.70;94.80;;;;;;5073069;28;20024;-49
2021/11/18 05:08:24;;;;;;;69.68;23.88;;;5.80;94.90;;;;;;5072885;28;20049;-52
2021/11/18 05:10:51;;;;;;;60.30;25.20;;;5.70;94.80;;;;;;5072996;28;20032;-48
2021/11/18 05:13:20;;;;;;;60.78;23.17;;;5.70;94.90;;;;;;5073046;28;20020;-49
2021/11/18 05:15:47;;;;;;;56.00;22.88;;;5.80;94.90;;;;;;5072971;28;20052;-48
2021/11/18 05:18:14;;;;;;;68.68;24.13;;;5.80;94.90;;;;;;5071494;28;20435;-50
2021/11/18 05:20:41;;;;;;;61.28;23.00;;;5.90;94.70;;;;;;5071621;28;20025;-48
2021/11/18 05:23:07;;;;;;;72.47;25.52;;;5.80;94.70;;;;;;5072926;28;20029;-46
2021/11/18 05:25:34;;;;;;;56.92;21.65;;;5.90;94.70;;;;;;5072623;28;20021;-48
2021/11/18 05:28:00;;;;;;;57.85;22.10;;;5.90;94.70;;;;;;5072786;28;20025;-48
2021/11/18 05:30:28;;;;;;;65.88;23.75;;;6.00;94.60;;;;;;5072999;28;20020;-48
2021/11/18 05:32:58;;;;;;;61.55;24.10;;;6.10;94.60;;;;;;5072804;28;20025;-47
2021/11/18 05:35:25;;;;;;;84.40;27.40;;;6.10;94.50;;;;;;5071829;28;20021;-47
2021/11/18 05:37:51;;;;;;;77.38;23.52;;;6.20;94.30;;;;;;5073243;28;20111;-47
2021/11/18 05:40:18;;;;;;;64.22;23.73;;;6.20;94.30;;;;;;5072835;28;20056;-47
2021/11/18 05:42:44;;;;;;;61.22;22.20;;;6.10;94.10;;;;;;5073436;28;20033;-50
2021/11/18 05:45:14;;;;;;;63.78;21.23;;;6.20;94.30;;;;;;5073396;28;20362;-51
2021/11/18 05:47:40;;;;;;;79.40;25.25;;;6.20;94.30;;;;;;5072739;28;20027;-47
2021/11/18 05:50:07;;;;;;;72.07;26.30;;;6.30;94.10;;;;;;5072980;28;20059;-47
2021/11/18 05:52:39;;;;;;;65.68;24.65;;;6.30;94.00;;;;;;5072842;28;20020;-47
2021/11/18 05:55:07;;;;;;;64.70;22.33;;;6.30;94.00;;;;;;5071650;28;20068;-47
2021/11/18 05:57:32;;;;;;;72.00;23.40;;;6.30;93.80;;;;;;5072335;28;20033;-49
2021/11/18 05:59:58;;;;;;;63.20;21.77;;;6.30;93.80;;;;;;5072550;28;20070;-49
2021/11/18 06:02:24;;;;;;;64.97;23.08;;;6.30;93.90;;;;;;5072313;28;20029;-48
2021/11/18 06:04:50;;;;;;;72.00;23.33;;;6.20;94.00;;;;;;5072630;28;20025;-48
2021/11/18 06:07:16;;;;;;;63.05;21.75;;;6.30;94.10;;;;;;5072110;28;20424;-48
2021/11/18 06:09:42;;;;;;;65.72;22.50;;;6.30;93.90;;;;;;5072551;28;20044;-49
2021/11/18 06:12:09;;;;;;;64.10;24.83;;;6.30;93.90;;;;;;5072318;28;20016;-47
2021/11/18 06:14:35;;;;;;;59.25;21.02;;;6.30;93.90;;;;;;5072853;28;20028;-37
2021/11/18 06:17:01;;;;;;;55.83;22.40;;;6.30;94.00;;;;;;5074742;28;20058;-37
2021/11/18 06:19:27;;;;;;;67.80;24.08;;;6.30;94.10;;;;;;5075932;28;20074;-38
2021/11/18 06:21:57;;;;;;;51.90;20.75;;;6.40;94.00;;;;;;5075897;28;20427;-36
2021/11/18 06:24:24;;;;;;;48.95;19.20;;;6.30;93.80;;;;;;5075788;28;20060;-37
2021/11/18 06:26:51;;;;;;;53.35;21.05;;;6.30;93.90;;;;;;5075651;28;20474;-37
2021/11/18 06:29:20;;;;;;;62.00;21.50;;;6.40;94.10;;;;;;5076298;28;20024;-37
2021/11/18 06:31:47;;;;;;;65.32;21.55;;;6.40;93.80;;;;;;5075853;28;20052;-37
2021/11/18 06:34:14;;;;;;;67.65;24.38;;;6.40;93.80;;;;;;5075827;28;20108;-37
2021/11/18 06:36:40;;;;;;;62.50;21.27;;;6.40;93.80;;;;;;5075690;28;20024;-38
2021/11/18 06:39:06;;;;;;;58.88;20.77;;;6.40;93.80;;;;;;5074891;28;20111;-38
2021/11/18 06:41:32;;;;;;;61.20;22.88;;;6.30;93.80;;;;;;5075739;28;20067;-37
2021/11/18 06:43:59;;;;;;;63.33;24.80;;;6.30;93.90;;;;;;5075753;28;20028;-37
2021/11/18 06:46:26;;;;;;;74.25;26.95;;;6.30;94.00;;;;;;5075504;28;20141;-37
2021/11/18 06:48:53;;;;;;;53.80;21.60;;;6.30;94.20;;;;;;5075089;28;20025;-37
2021/11/18 06:51:22;;;;;;;60.53;21.08;;;6.30;94.20;;;;;;5075938;28;20163;-38
2021/11/18 06:53:50;;;;;;;57.60;20.95;;;6.30;94.20;;;;;;5074444;28;20392;-38
2021/11/18 06:56:17;;;;;;;68.85;24.40;;;6.40;94.10;;;;;;5075096;28;20107;-37
2021/11/18 06:58:42;;;;;;;66.35;22.48;;;6.40;94.00;;;;;;5075232;28;20025;-37
2021/11/18 07:01:09;;;;;;;68.90;25.23;;;6.50;93.90;;;;;;5074997;28;20024;-37
2021/11/18 07:03:39;;;;;;;69.22;24.13;;;6.60;93.80;;;;;;5073686;28;20090;-47
2021/11/18 07:06:06;;;;;;;67.50;23.27;;;6.50;93.50;;;;;;5073571;28;20045;-38
2021/11/18 07:08:32;;;;;;;67.45;24.20;;;6.60;93.70;;;;;;5074405;28;20072;-37
2021/11/18 07:10:58;;;;;;;57.20;23.48;;;6.60;93.40;;;;;;5074861;28;20028;-38
2021/11/18 07:13:27;;;;;;;56.50;22.95;;;6.60;93.50;;;;;;5074487;28;20032;-36
2021/11/18 07:15:53;;;;;;;58.90;23.00;;;6.50;93.60;;;;;;5074812;28;20425;-37
2021/11/18 07:18:20;;;;;;;60.38;22.88;;;6.70;93.50;;;;;;5074584;28;20025;-37
2021/11/18 07:20:46;;;;;;;55.70;21.25;;;6.70;93.30;;;;;;5074908;28;20111;-37
2021/11/18 07:23:13;;;;;;;63.00;20.75;;;6.50;93.30;;;;;;5074684;28;20028;-36
2021/11/18 07:25:40;;;;;;;66.45;24.13;;;6.60;93.60;;;;;;5074335;28;20021;-36
2021/11/18 07:28:07;;;;;;;58.25;21.45;;;6.70;93.40;;;;;;5074073;28;20028;-36
2021/11/18 07:30:33;;;;;;;75.65;25.17;;;6.70;93.30;;;;;;5074071;28;20028;-37
2021/11/18 07:32:59;;;;;;;61.10;22.23;;;6.80;93.30;;;;;;5074311;28;20495;-37
2021/11/18 07:35:26;;;;;;;60.35;22.38;;;6.80;93.40;;;;;;5074250;28;20025;-37
2021/11/18 07:37:52;;;;;;;65.57;22.83;;;6.80;93.30;;;;;;5072828;28;20048;-37
2021/11/18 07:40:20;;;;;;;54.95;22.77;;;6.70;93.30;;;;;;5073781;28;20530;-37
2021/11/18 07:42:48;;;;;;;53.30;22.33;;;6.80;93.20;;;;;;5074359;28;20025;-37
2021/11/18 07:45:16;;;;;;;46.80;21.42;;;6.90;93.20;;;;;;5073564;28;20027;-38
2021/11/18 07:47:42;;;;;;;59.40;21.33;;;6.90;92.90;;;;;;5074277;28;20016;-37
2021/11/18 07:50:09;;;;;;;52.25;20.40;;;6.80;92.90;;;;;;5074229;28;20024;-38
2021/11/18 07:52:36;;;;;;;57.10;22.23;;;6.80;93.00;;;;;;5074049;28;20104;-37
2021/11/18 07:55:02;;;;;;;58.80;23.67;;;6.90;92.90;;;;;;5074276;28;20465;-38
2021/11/18 07:57:28;;;;;;;53.53;21.33;;;7.00;92.70;;;;;;5073049;28;20039;-39
2021/11/18 07:59:54;;;;;;;46.50;20.40;;;6.90;92.80;;;;;;5073204;28;20453;-37
2021/11/18 08:02:19;;;;;;;52.20;18.30;;;6.80;92.90;;;;;;5073963;28;20108;-38
2021/11/18 08:04:45;;;;;;;46.17;19.83;;;7.00;93.00;;;;;;5074729;28;20017;-37
2021/11/18 08:07:11;;;;;;;73.10;30.52;;;6.90;92.90;;;;;;5073888;28;20036;-37
2021/11/18 08:09:37;;;;;;;61.00;25.52;;;7.00;92.60;;;;;;5073440;28;20073;-38
2021/11/18 08:12:07;;;;;;;53.10;21.60;;;7.10;92.70;;;;;;5073345;28;20093;-38
2021/11/18 08:14:32;;;;;;;52.35;21.20;;;7.20;92.50;;;;;;5073339;28;20028;-37
2021/11/18 08:16:59;;;;;;;53.65;20.42;;;7.20;92.40;;;;;;5073486;28;20043;-37
2021/11/18 08:19:26;;;;;;;36.92;17.73;;;7.30;91.90;;;;;;5073851;28;20028;-38
2021/11/18 08:21:55;;;;;;;47.55;18.17;;;7.20;91.90;;;;;;5076552;28;20017;-37
2021/11/18 08:24:22;;;;;;;53.40;18.98;;;7.30;92.00;;;;;;5073271;28;20025;-38
2021/11/18 08:26:49;;;;;;;52.30;19.42;;;7.20;92.30;;;;;;5072042;28;20016;-38
2021/11/18 08:29:18;;;;;;;61.80;21.15;;;7.30;92.10;;;;;;5073095;28;20096;-37
2021/11/18 08:31:45;;;;;;;48.25;18.35;;;7.40;91.80;;;;;;5073301;28;20024;-38
2021/11/18 08:34:11;;;;;;;49.17;17.20;;;7.40;91.60;;;;;;5072796;28;20429;-37
2021/11/18 08:36:37;;;;;;;50.40;21.10;;;7.50;91.70;;;;;;5072870;28;20103;-37
2021/11/18 08:39:10;;;;;;;43.03;16.05;;;7.50;91.40;;;;;;5070644;28;20046;-38
2021/11/18 08:41:37;;;;;;;43.58;17.30;;;7.60;90.80;;;;;;5072464;28;20040;-38
2021/11/18 08:44:03;;;;;;;41.13;17.08;;;7.50;90.80;;;;;;5072592;28;20035;-38
2021/11/18 08:46:29;;;;;;;45.75;18.65;;;7.60;91.00;;;;;;5072759;28;20028;-37
2021/11/18 08:49:00;;;;;;;38.90;16.20;;;7.50;91.00;;;;;;5072975;28;20489;-37
2021/11/18 08:51:28;;;;;;;53.90;19.08;;;7.50;91.30;;;;;;5072428;28;20149;-37
2021/11/18 08:53:56;;;;;;;55.38;19.17;;;7.60;91.30;;;;;;5073281;28;20029;-37
2021/11/18 08:56:24;;;;;;;53.58;16.67;;;7.60;91.20;;;;;;5072889;28;20025;-38
2021/11/18 08:58:55;;;;;;;52.65;17.63;;;7.60;91.00;;;;;;5073946;28;20059;-37
2021/11/18 09:01:36;;;;;;;40.72;14.55;;;7.80;90.80;;;;;;5072612;28;20052;-36
2021/11/18 09:04:06;;;;;;;42.22;15.43;;;8.00;90.00;;;;;;5072657;28;20039;-37
2021/11/18 09:06:33;;;;;;;41.78;15.57;;;8.20;88.90;;;;;;5072372;28;20029;-37
2021/11/18 09:08:58;;;;;;;37.58;14.60;;;8.30;89.00;;;;;;5072759;28;20032;-37
2021/11/18 09:11:26;;;;;;;40.33;14.02;;;8.30;88.00;;;;;;5072652;28;20021;-37
2021/11/18 09:13:53;;;;;;;39.80;16.60;;;8.20;88.80;;;;;;5073189;28;20060;-39
2021/11/18 09:16:21;;;;;;;39.67;16.33;;;8.40;88.60;;;;;;5072948;28;20097;-41
2021/11/18 09:18:47;;;;;;;35.55;13.95;;;8.50;88.10;;;;;;5072394;28;20017;-39
